Time;durP1;ratioP1;P1;durP2;ratioP2;P2;SDS_P1;SDS_P2;PMS_P1;PMS_P2;Temp;Humidity;BMP_temperature;BMP_pressure;BME280_temperature;BME280_humidity;BME280_pressure;Samples;Min_cycle;Max_cycle;Signal;HPM_P1;HPM_P2
2023/04/11 05:00:54;;;;;;;0.93;0.60;;;11.80;97.20;;;;;;1700097;29;20258;-70
2023/04/11 05:01:45;;;;;;;1.38;0.70;;;11.80;97.20;;;;;;1700409;29;20215;-70
2023/04/11 05:02:39;;;;;;;1.40;0.77;;;11.80;97.20;;;;;;1700005;29;20196;-70
2023/04/11 05:03:33;;;;;;;2.17;0.80;;;11.80;97.20;;;;;;1700317;29;20199;-69
2023/04/11 05:04:25;;;;;;;0.90;0.68;;;11.80;97.20;;;;;;1703839;29;20202;-70
2023/04/11 05:05:16;;;;;;;1.10;0.70;;;11.80;97.20;;;;;;1700377;29;20207;-70
2023/04/11 05:06:08;;;;;;;2.07;0.70;;;11.90;97.20;;;;;;1700462;29;20478;-69
2023/04/11 05:06:59;;;;;;;1.77;0.80;;;11.90;97.20;;;;;;1700790;29;20246;-70
2023/04/11 05:07:50;;;;;;;2.40;0.80;;;11.90;97.20;;;;;;1701734;29;20203;-70
2023/04/11 05:08:41;;;;;;;0.80;0.60;;;11.90;97.20;;;;;;1697493;29;20459;-70
2023/04/11 05:09:33;;;;;;;3.37;0.70;;;11.90;97.20;;;;;;1694986;29;20310;-70
2023/04/11 05:10:24;;;;;;;0.95;0.70;;;11.90;97.20;;;;;;1694541;29;20212;-70
2023/04/11 05:11:15;;;;;;;2.40;1.10;;;11.90;97.20;;;;;;1695021;29;20210;-70
2023/04/11 05:12:07;;;;;;;1.70;1.13;;;11.90;97.20;;;;;;1695093;29;20215;-70
2023/04/11 05:12:58;;;;;;;1.20;1.05;;;11.80;97.20;;;;;;1696200;29;20231;-70
2023/04/11 05:13:50;;;;;;;1.30;0.77;;;11.80;97.20;;;;;;1701681;29;20210;-70
2023/04/11 05:14:41;;;;;;;3.67;0.80;;;11.80;97.20;;;;;;1701090;29;20210;-70
2023/04/11 05:15:32;;;;;;;1.63;0.73;;;11.70;97.20;;;;;;1701465;29;20198;-69
2023/04/11 05:16:25;;;;;;;1.27;0.90;;;11.70;97.20;;;;;;1701443;29;20707;-70
2023/04/11 05:17:17;;;;;;;1.02;0.60;;;11.70;97.20;;;;;;1701566;29;20207;-70
2023/04/11 05:18:08;;;;;;;1.95;0.70;;;11.70;97.20;;;;;;1701464;29;20210;-70
2023/04/11 05:18:59;;;;;;;1.43;0.80;;;11.60;97.20;;;;;;1701534;29;20199;-70
2023/04/11 05:19:50;;;;;;;0.80;0.57;;;11.60;97.20;;;;;;1701336;29;20203;-70
2023/04/11 05:20:42;;;;;;;2.00;1.07;;;11.60;97.20;;;;;;1701210;29;20407;-70
2023/04/11 05:21:32;;;;;;;1.52;0.65;;;11.60;97.20;;;;;;1701521;29;20211;-70
2023/04/11 05:22:24;;;;;;;0.90;0.70;;;11.50;97.20;;;;;;1701464;29;20207;-69
2023/04/11 05:23:15;;;;;;;2.10;0.70;;;11.50;97.20;;;;;;1701332;29;20202;-71
2023/04/11 05:24:07;;;;;;;1.00;0.70;;;11.50;97.20;;;;;;1701225;29;20230;-70
2023/04/11 05:24:57;;;;;;;0.90;0.60;;;11.50;97.20;;;;;;1701473;29;20215;-70
2023/04/11 05:25:49;;;;;;;0.80;0.60;;;11.50;97.20;;;;;;1701514;29;20226;-70
2023/04/11 05:26:40;;;;;;;1.10;0.80;;;11.40;97.20;;;;;;1701496;29;20207;-70
2023/04/11 05:27:32;;;;;;;1.50;0.60;;;11.40;97.20;;;;;;1701637;29;20295;-70
2023/04/11 05:28:23;;;;;;;0.98;0.70;;;11.40;97.20;;;;;;1701367;29;20448;-70
2023/04/11 05:29:15;;;;;;;1.33;0.70;;;11.40;97.20;;;;;;1701089;29;20195;-70
2023/04/11 05:30:07;;;;;;;0.98;0.52;;;11.40;97.20;;;;;;1700944;29;20223;-70
2023/04/11 05:30:58;;;;;;;1.38;0.70;;;11.30;97.20;;;;;;1701249;29;20227;-70
2023/04/11 05:31:50;;;;;;;1.50;0.85;;;11.30;97.20;;;;;;1701436;29;20583;-70
2023/04/11 05:32:42;;;;;;;1.65;0.70;;;11.30;97.20;;;;;;1701404;29;20215;-70
2023/04/11 05:33:33;;;;;;;1.30;0.70;;;11.30;97.20;;;;;;1701393;29;20265;-70
2023/04/11 05:34:25;;;;;;;1.93;0.80;;;11.30;97.20;;;;;;1701394;29;20262;-70
2023/04/11 05:35:16;;;;;;;2.47;0.70;;;11.30;97.20;;;;;;1701321;29;20447;-70
2023/04/11 05:36:12;;;;;;;2.07;1.13;;;11.30;97.20;;;;;;1701452;29;20207;-70
2023/04/11 05:37:03;;;;;;;0.82;0.70;;;11.30;97.20;;;;;;1701466;29;20203;-70
2023/04/11 05:37:54;;;;;;;1.80;0.80;;;11.30;97.20;;;;;;1701430;29;20270;-70
2023/04/11 05:38:45;;;;;;;5.43;0.90;;;11.30;97.20;;;;;;1701152;29;20663;-70
2023/04/11 05:39:37;;;;;;;1.47;0.70;;;11.30;97.20;;;;;;1700940;29;20675;-71
2023/04/11 05:40:28;;;;;;;1.00;0.68;;;11.30;97.20;;;;;;1701005;29;20554;-71
2023/04/11 05:41:19;;;;;;;1.77;0.70;;;11.20;97.20;;;;;;1701286;29;20581;-71
2023/04/11 05:42:10;;;;;;;2.25;0.85;;;11.20;97.20;;;;;;1701324;29;20216;-70
2023/04/11 05:43:02;;;;;;;2.33;1.00;;;11.20;97.20;;;;;;1701316;29;20319;-70
2023/04/11 05:43:52;;;;;;;3.13;1.50;;;11.20;97.20;;;;;;1701441;29;20203;-70
2023/04/11 05:44:44;;;;;;;1.47;0.90;;;11.20;97.20;;;;;;1701283;29;20199;-71
2023/04/11 05:45:35;;;;;;;2.55;0.73;;;11.20;97.20;;;;;;1701345;29;20632;-71
2023/04/11 05:46:28;;;;;;;1.67;0.87;;;11.20;97.20;;;;;;1701293;29;20254;-71
2023/04/11 05:47:20;;;;;;;1.48;0.93;;;11.20;97.20;;;;;;1701338;29;20277;-70
2023/04/11 05:48:11;;;;;;;1.90;0.90;;;11.20;97.20;;;;;;1701334;29;20203;-71
2023/04/11 05:49:02;;;;;;;0.95;0.70;;;11.20;97.20;;;;;;1701368;29;20215;-70
2023/04/11 05:49:54;;;;;;;2.07;0.90;;;11.10;97.20;;;;;;1700841;29;20222;-70
2023/04/11 05:50:45;;;;;;;1.25;0.77;;;11.10;97.20;;;;;;1701072;29;20587;-70
2023/04/11 05:51:37;;;;;;;2.95;1.15;;;11.10;97.20;;;;;;1701262;29;20291;-70
2023/04/11 05:52:27;;;;;;;2.83;1.20;;;11.10;97.20;;;;;;1701301;29;20210;-69
2023/04/11 05:53:19;;;;;;;1.73;0.80;;;11.00;97.20;;;;;;1701281;29;20205;-70
2023/04/11 05:54:12;;;;;;;1.17;0.70;;;11.00;97.20;;;;;;1701307;29;20654;-70
2023/04/11 05:55:04;;;;;;;1.98;0.80;;;11.00;97.20;;;;;;1701322;29;20569;-70
2023/04/11 05:55:55;;;;;;;1.75;0.70;;;11.00;97.20;;;;;;1701349;29;20294;-70
2023/04/11 05:56:47;;;;;;;1.60;0.70;;;11.00;97.20;;;;;;1701255;29;20207;-70
2023/04/11 05:57:37;;;;;;;2.25;0.95;;;11.00;97.20;;;;;;1701175;29;20207;-70
2023/04/11 05:58:29;;;;;;;1.33;0.80;;;11.00;97.20;;;;;;1701309;29;20214;-70
2023/04/11 05:59:22;;;;;;;1.55;0.70;;;11.00;97.20;;;;;;1701079;29;20334;-70
2023/04/11 06:00:15;;;;;;;1.50;0.90;;;11.00;97.20;;;;;;1694332;29;20255;-70
2023/04/11 06:01:11;;;;;;;1.48;0.70;;;11.00;97.20;;;;;;1694646;29;20302;-70
2023/04/11 06:02:02;;;;;;;1.88;1.00;;;11.00;97.20;;;;;;1694657;29;20207;-70
2023/04/11 06:02:55;;;;;;;4.50;0.80;;;10.90;97.20;;;;;;1694682;29;20212;-70
2023/04/11 06:03:47;;;;;;;1.35;0.80;;;10.90;97.20;;;;;;1699558;29;20266;-70
2023/04/11 06:04:37;;;;;;;2.13;0.70;;;10.80;97.20;;;;;;1701157;29;20230;-68
2023/04/11 06:05:30;;;;;;;1.33;0.73;;;10.90;97.20;;;;;;1701089;29;20238;-70
2023/04/11 06:06:22;;;;;;;1.00;0.80;;;10.90;97.20;;;;;;1701124;29;20235;-68
2023/04/11 06:07:13;;;;;;;2.38;0.88;;;10.90;97.20;;;;;;1701181;29;20218;-70
2023/04/11 06:08:07;;;;;;;1.90;0.73;;;10.90;97.20;;;;;;1701211;29;20206;-68
2023/04/11 06:08:58;;;;;;;2.60;0.90;;;10.90;97.20;;;;;;1701234;29;20958;-70
2023/04/11 06:09:50;;;;;;;2.53;0.98;;;10.90;97.20;;;;;;1700595;29;20227;-71
2023/04/11 06:10:41;;;;;;;2.05;0.70;;;11.00;97.20;;;;;;1700874;29;20230;-70
2023/04/11 06:11:32;;;;;;;2.70;0.70;;;11.00;97.20;;;;;;1701055;29;20203;-70
2023/04/11 06:12:23;;;;;;;1.45;0.88;;;11.00;97.20;;;;;;1701143;29;20214;-70
2023/04/11 06:13:15;;;;;;;1.70;0.83;;;11.00;97.20;;;;;;1701201;29;20698;-70
2023/04/11 06:14:06;;;;;;;1.40;0.90;;;11.00;97.20;;;;;;1698814;29;20203;-70
2023/04/11 06:14:58;;;;;;;1.47;0.70;;;11.00;97.20;;;;;;1697163;29;20200;-70
2023/04/11 06:15:49;;;;;;;1.48;0.85;;;10.90;97.20;;;;;;1694557;29;20479;-70
2023/04/11 06:16:41;;;;;;;1.90;0.80;;;10.90;97.20;;;;;;1694629;29;20199;-70
2023/04/11 06:17:32;;;;;;;1.58;0.70;;;10.90;97.20;;;;;;1694278;29;20448;-70
2023/04/11 06:18:25;;;;;;;1.67;0.70;;;10.90;97.20;;;;;;1694389;29;20208;-69
2023/04/11 06:19:16;;;;;;;1.77;0.70;;;10.80;97.20;;;;;;1697098;29;20215;-69
2023/04/11 06:20:09;;;;;;;2.80;1.10;;;10.80;97.20;;;;;;1700918;29;20199;-69
2023/04/11 06:21:00;;;;;;;1.33;0.90;;;10.80;97.20;;;;;;1700958;29;20475;-69
2023/04/11 06:21:51;;;;;;;1.60;0.60;;;10.80;97.20;;;;;;1701027;29;20206;-70
2023/04/11 06:22:42;;;;;;;1.05;0.95;;;10.80;97.20;;;;;;1700802;29;20463;-70
2023/04/11 06:23:34;;;;;;;1.47;0.80;;;10.80;97.20;;;;;;1700530;29;20203;-70
2023/04/11 06:24:34;;;;;;;2.40;0.95;;;10.80;97.20;;;;;;1701090;29;20455;-70
2023/04/11 06:25:26;;;;;;;3.35;0.80;;;10.80;97.20;;;;;;1700869;29;20207;-70
2023/04/11 06:26:16;;;;;;;1.63;0.90;;;10.80;97.20;;;;;;1701060;29;20231;-69
2023/04/11 06:27:09;;;;;;;0.80;0.70;;;10.90;97.20;;;;;;1698319;29;20218;-70
2023/04/11 06:28:00;;;;;;;2.33;0.80;;;10.90;97.20;;;;;;1696714;29;20203;-70
2023/04/11 06:28:53;;;;;;;1.27;0.80;;;10.90;97.20;;;;;;1697955;29;20196;-70
2023/04/11 06:29:45;;;;;;;1.58;0.90;;;10.90;97.20;;;;;;1697233;29;20650;-70
2023/04/11 06:30:37;;;;;;;1.70;0.85;;;10.90;97.20;;;;;;1696199;29;20278;-70
2023/04/11 06:31:28;;;;;;;1.88;1.02;;;11.00;97.20;;;;;;1697447;29;20203;-70
2023/04/11 06:32:20;;;;;;;1.87;1.00;;;10.90;97.20;;;;;;1697623;29;20199;-67
2023/04/11 06:33:10;;;;;;;1.42;0.80;;;10.90;97.20;;;;;;1696812;29;20294;-70
2023/04/11 06:34:03;;;;;;;1.70;0.90;;;10.90;97.20;;;;;;1697062;29;20204;-69
2023/04/11 06:34:54;;;;;;;0.80;0.80;;;10.90;97.20;;;;;;1698064;29;20204;-70
2023/04/11 06:35:49;;;;;;;2.40;1.08;;;10.90;97.20;;;;;;1696950;29;20223;-70
2023/04/11 06:36:41;;;;;;;4.15;1.00;;;10.90;97.20;;;;;;1696796;29;20204;-70
2023/04/11 06:37:33;;;;;;;1.13;0.70;;;10.90;97.20;;;;;;1698599;29;20218;-70
2023/04/11 06:38:24;;;;;;;1.50;1.30;;;10.90;97.20;;;;;;1697306;29;20200;-69
2023/04/11 06:39:15;;;;;;;2.28;1.20;;;10.90;97.20;;;;;;1697576;29;20212;-69
2023/04/11 06:40:08;;;;;;;1.30;0.90;;;10.90;97.20;;;;;;1696479;29;20282;-69
2023/04/11 06:40:59;;;;;;;3.28;0.90;;;10.90;97.20;;;;;;1696762;29;20226;-69
2023/04/11 06:41:51;;;;;;;1.15;1.05;;;10.90;97.20;;;;;;1697893;29;20251;-69
2023/04/11 06:42:42;;;;;;;2.05;0.80;;;10.90;97.20;;;;;;1697279;29;20316;-69
2023/04/11 06:43:34;;;;;;;3.10;1.00;;;11.00;97.20;;;;;;1696707;29;20203;-69
2023/04/11 06:44:25;;;;;;;1.85;0.70;;;11.00;97.20;;;;;;1697493;29;20231;-70
2023/04/11 06:45:16;;;;;;;2.50;0.82;;;11.00;97.20;;;;;;1697718;29;20208;-70
2023/04/11 06:46:07;;;;;;;1.77;0.82;;;11.10;97.20;;;;;;1697225;29;20659;-70
2023/04/11 06:46:59;;;;;;;2.80;0.87;;;11.10;97.20;;;;;;1694388;29;20674;-69
2023/04/11 06:47:49;;;;;;;3.08;0.80;;;11.10;97.20;;;;;;1694386;29;20204;-69
2023/04/11 06:48:41;;;;;;;1.43;0.80;;;11.10;97.20;;;;;;1695049;29;20204;-69
2023/04/11 06:49:33;;;;;;;4.78;1.33;;;11.10;97.20;;;;;;1700577;29;20195;-69
2023/04/11 06:50:25;;;;;;;2.50;0.95;;;11.10;97.20;;;;;;1700459;29;20552;-70
2023/04/11 06:51:16;;;;;;;2.25;1.13;;;11.10;97.20;;;;;;1700860;29;20218;-70
2023/04/11 06:52:07;;;;;;;3.83;0.80;;;11.10;97.20;;;;;;1700878;29;20207;-69
2023/04/11 06:52:58;;;;;;;3.75;1.17;;;11.10;97.20;;;;;;1700271;29;20285;-69
2023/04/11 06:53:50;;;;;;;1.33;0.90;;;11.10;97.20;;;;;;1700345;29;20214;-69
2023/04/11 06:54:40;;;;;;;3.20;0.80;;;11.10;97.20;;;;;;1700751;29;20238;-69
2023/04/11 06:55:32;;;;;;;1.40;0.70;;;11.10;97.20;;;;;;1700903;29;20199;-69
2023/04/11 06:56:23;;;;;;;1.33;0.80;;;11.10;97.20;;;;;;1700828;29;20235;-69
2023/04/11 06:57:15;;;;;;;2.20;0.80;;;11.10;97.20;;;;;;1700896;29;20203;-69
2023/04/11 06:58:05;;;;;;;1.45;0.95;;;11.10;97.20;;;;;;1700766;29;20822;-69
2023/04/11 06:58:57;;;;;;;2.13;0.80;;;11.10;97.20;;;;;;1700810;29;20225;-69
2023/04/11 06:59:48;;;;;;;2.10;1.00;;;11.10;97.20;;;;;;1700416;29;20195;-71
2023/04/11 07:00:39;;;;;;;1.30;0.73;;;11.10;97.20;;;;;;1700488;29;20711;-70
2023/04/11 07:01:34;;;;;;;1.10;0.95;;;11.10;97.20;;;;;;1700789;29;20211;-69
2023/04/11 07:02:26;;;;;;;1.85;0.70;;;11.10;97.20;;;;;;1700817;29;20681;-69
2023/04/11 07:03:17;;;;;;;2.60;1.05;;;11.00;97.20;;;;;;1700810;29;20210;-68
2023/04/11 07:04:08;;;;;;;3.22;1.10;;;11.00;97.20;;;;;;1700871;29;20207;-67
2023/04/11 07:05:01;;;;;;;1.50;0.90;;;11.00;97.20;;;;;;1700781;29;20210;-69
2023/04/11 07:05:52;;;;;;;2.25;1.10;;;11.00;97.20;;;;;;1700839;29;20294;-69
2023/04/11 07:06:43;;;;;;;1.75;1.10;;;11.10;97.20;;;;;;1700788;29;20207;-69
2023/04/11 07:07:35;;;;;;;1.10;0.80;;;11.10;97.20;;;;;;1700754;29;20205;-70
2023/04/11 07:08:25;;;;;;;3.00;1.08;;;11.10;97.20;;;;;;1700837;29;20235;-69
2023/04/11 07:09:17;;;;;;;2.93;0.90;;;11.10;97.20;;;;;;1700502;29;20199;-70
2023/04/11 07:10:08;;;;;;;2.53;0.82;;;11.20;97.20;;;;;;1700520;29;20580;-70
2023/04/11 07:11:00;;;;;;;1.80;0.98;;;11.20;97.20;;;;;;1700764;29;20227;-70
2023/04/11 07:11:51;;;;;;;3.35;1.05;;;11.30;97.20;;;;;;1700747;29;20254;-70
2023/04/11 07:12:42;;;;;;;3.97;1.30;;;11.30;97.20;;;;;;1700697;29;20199;-70
2023/04/11 07:13:33;;;;;;;3.72;0.90;;;11.30;97.20;;;;;;1700798;29;20589;-69
2023/04/11 07:14:25;;;;;;;2.13;1.10;;;11.30;97.20;;;;;;1700693;29;20199;-69
2023/04/11 07:15:16;;;;;;;2.85;1.30;;;11.40;97.20;;;;;;1700703;29;20564;-69
2023/04/11 07:16:08;;;;;;;2.10;1.10;;;11.40;97.20;;;;;;1700823;29;20572;-69
2023/04/11 07:17:00;;;;;;;1.63;1.20;;;11.40;97.20;;;;;;1700724;29;20451;-69
2023/04/11 07:17:51;;;;;;;3.28;1.70;;;11.50;97.20;;;;;;1700717;29;20215;-69
2023/04/11 07:18:42;;;;;;;1.63;1.20;;;11.50;97.20;;;;;;1700691;29;20211;-69
2023/04/11 07:19:34;;;;;;;3.33;1.30;;;11.50;97.20;;;;;;1700563;29;20195;-70
2023/04/11 07:20:26;;;;;;;2.67;1.40;;;11.50;97.20;;;;;;1700285;29;20455;-71
2023/04/11 07:21:18;;;;;;;1.52;1.10;;;11.50;97.20;;;;;;1700722;29;20342;-69
2023/04/11 07:22:08;;;;;;;1.42;0.90;;;11.50;97.20;;;;;;1700677;29;20663;-69
2023/04/11 07:23:01;;;;;;;3.13;1.00;;;11.50;97.20;;;;;;1700717;29;20675;-69
2023/04/11 07:23:53;;;;;;;2.80;1.25;;;11.60;97.20;;;;;;1700742;29;20211;-69
2023/04/11 07:24:45;;;;;;;3.88;1.15;;;11.60;97.20;;;;;;1700718;29;20568;-69
2023/04/11 07:25:38;;;;;;;2.53;1.10;;;11.60;97.20;;;;;;1700651;29;20664;-69
2023/04/11 07:26:31;;;;;;;2.40;1.25;;;11.60;97.20;;;;;;1700737;29;20206;-70
2023/04/11 07:27:22;;;;;;;2.58;0.88;;;11.60;97.20;;;;;;1700618;29;20579;-70
2023/04/11 07:28:14;;;;;;;3.47;1.55;;;11.60;97.20;;;;;;1700655;29;20223;-70
2023/04/11 07:29:05;;;;;;;7.65;1.70;;;11.60;97.20;;;;;;1700475;29;20238;-70
2023/04/11 07:29:56;;;;;;;3.10;2.60;;;11.70;97.20;;;;;;1699896;29;20210;-69
2023/04/11 07:30:47;;;;;;;3.97;2.28;;;11.60;97.20;;;;;;1700406;29;20238;-69
2023/04/11 07:31:39;;;;;;;2.60;1.80;;;11.70;97.20;;;;;;1700612;29;20211;-69
2023/04/11 07:32:30;;;;;;;2.97;1.10;;;11.70;97.20;;;;;;1700611;29;20633;-69
2023/04/11 07:33:21;;;;;;;3.30;1.50;;;11.70;97.20;;;;;;1700651;29;20605;-70
2023/04/11 07:34:12;;;;;;;2.75;1.30;;;11.70;97.20;;;;;;1700678;29;20694;-70
2023/04/11 07:35:04;;;;;;;3.93;1.83;;;11.60;97.20;;;;;;1700694;29;20746;-70
2023/04/11 07:35:56;;;;;;;2.67;1.50;;;11.60;97.20;;;;;;1700763;29;20585;-69
2023/04/11 07:36:49;;;;;;;1.92;1.40;;;11.60;97.20;;;;;;1700658;29;20214;-69
2023/04/11 07:37:41;;;;;;;3.63;1.33;;;11.60;97.20;;;;;;1700640;29;20721;-69
2023/04/11 07:38:33;;;;;;;2.15;1.10;;;11.60;97.20;;;;;;1700774;29;20406;-69
2023/04/11 07:39:24;;;;;;;2.15;1.05;;;11.60;97.20;;;;;;1700299;29;20238;-69
2023/04/11 07:40:16;;;;;;;2.10;1.33;;;11.60;97.20;;;;;;1700284;29;20207;-69
2023/04/11 07:41:07;;;;;;;3.80;1.30;;;11.60;97.20;;;;;;1700653;29;21035;-69
2023/04/11 07:42:00;;;;;;;1.70;0.90;;;11.60;97.20;;;;;;1700539;29;20326;-69
2023/04/11 07:42:51;;;;;;;2.08;1.20;;;11.60;97.20;;;;;;1700604;29;20234;-69
2023/04/11 07:43:43;;;;;;;2.03;1.03;;;11.60;97.20;;;;;;1700587;29;20205;-70
2023/04/11 07:44:33;;;;;;;2.88;1.50;;;11.60;97.20;;;;;;1700668;29;20574;-69
2023/04/11 07:45:25;;;;;;;2.90;1.30;;;11.70;97.20;;;;;;1700520;29;20233;-69
2023/04/11 07:46:16;;;;;;;4.68;1.20;;;11.80;97.20;;;;;;1700477;29;20241;-69
2023/04/11 07:47:07;;;;;;;3.40;1.17;;;11.90;97.20;;;;;;1700529;29;20210;-69
2023/04/11 07:47:59;;;;;;;2.53;0.90;;;12.00;97.20;;;;;;1700635;29;20577;-69
2023/04/11 07:48:50;;;;;;;2.13;1.10;;;12.20;97.20;;;;;;1700651;29;20199;-69
2023/04/11 07:49:41;;;;;;;4.50;1.42;;;12.20;97.20;;;;;;1699626;29;20635;-69
2023/04/11 07:50:33;;;;;;;2.60;1.57;;;12.40;97.20;;;;;;1699774;29;20231;-70
2023/04/11 07:51:26;;;;;;;1.40;0.90;;;12.50;97.20;;;;;;1700528;29;20203;-69
2023/04/11 07:52:17;;;;;;;2.72;1.30;;;12.60;97.20;;;;;;1700571;29;20215;-69
2023/04/11 07:53:09;;;;;;;4.10;1.10;;;12.60;97.20;;;;;;1700616;29;20210;-69
2023/04/11 07:54:02;;;;;;;2.90;1.10;;;12.70;97.20;;;;;;1700496;29;20213;-69
2023/04/11 07:54:52;;;;;;;3.85;1.10;;;12.70;97.20;;;;;;1700615;29;20207;-69
2023/04/11 07:55:44;;;;;;;3.23;1.20;;;12.80;97.20;;;;;;1700539;29;20262;-70
2023/04/11 07:56:36;;;;;;;2.03;1.08;;;12.80;97.20;;;;;;1700493;29;20455;-70
2023/04/11 07:57:27;;;;;;;4.05;1.52;;;12.90;97.20;;;;;;1700535;29;20226;-70
2023/04/11 07:58:18;;;;;;;3.00;1.43;;;12.90;97.20;;;;;;1700552;29;20214;-69
2023/04/11 07:59:12;;;;;;;3.38;1.25;;;12.90;97.20;;;;;;1700365;29;20207;-70
2023/04/11 08:00:03;;;;;;;2.45;1.20;;;12.90;97.20;;;;;;1693720;29;20210;-70
2023/04/11 08:00:55;;;;;;;2.35;1.00;;;13.00;97.20;;;;;;1693970;29;20783;-70
2023/04/11 08:01:45;;;;;;;7.82;1.40;;;13.10;97.20;;;;;;1693899;29;20204;-68
2023/04/11 08:02:37;;;;;;;5.40;1.40;;;13.30;97.20;;;;;;1693956;29;20235;-68
2023/04/11 08:03:28;;;;;;;3.20;1.25;;;13.50;97.20;;;;;;1694055;29;20204;-68
2023/04/11 08:04:20;;;;;;;4.03;1.50;;;13.60;97.20;;;;;;1693994;29;20671;-68
2023/04/11 08:05:11;;;;;;;2.50;1.65;;;13.80;97.20;;;;;;1694057;29;20251;-68
2023/04/11 08:06:02;;;;;;;3.47;1.30;;;13.90;97.20;;;;;;1693970;29;20215;-69
2023/04/11 08:06:56;;;;;;;3.13;1.67;;;14.10;97.20;;;;;;1694008;29;20329;-68
2023/04/11 08:07:48;;;;;;;3.13;1.40;;;14.30;97.20;;;;;;1694050;29;20691;-68
2023/04/11 08:08:39;;;;;;;5.93;1.70;;;14.50;97.20;;;;;;1693977;29;20199;-69
2023/04/11 08:09:31;;;;;;;3.20;1.60;;;14.60;97.20;;;;;;1696386;29;20206;-68
2023/04/11 08:10:21;;;;;;;6.38;1.90;;;14.70;97.20;;;;;;1700084;29;20222;-68
2023/04/11 08:11:13;;;;;;;6.57;2.10;;;14.70;97.20;;;;;;1700522;29;20241;-68
2023/04/11 08:12:05;;;;;;;2.60;1.52;;;14.70;97.20;;;;;;1700579;29;20207;-68
2023/04/11 08:12:57;;;;;;;4.00;1.17;;;14.70;97.20;;;;;;1700534;29;20207;-68
2023/04/11 08:13:48;;;;;;;3.83;1.40;;;14.70;97.20;;;;;;1700644;29;20207;-68
2023/04/11 08:14:40;;;;;;;5.30;1.42;;;14.60;97.20;;;;;;1700527;29;20282;-68
2023/04/11 08:15:31;;;;;;;4.50;1.35;;;14.60;97.20;;;;;;1700681;29;20682;-68
2023/04/11 08:16:22;;;;;;;2.90;1.40;;;14.50;97.20;;;;;;1700543;29;20628;-69
2023/04/11 08:17:13;;;;;;;2.90;1.20;;;14.50;97.20;;;;;;1700476;29;20211;-69
2023/04/11 08:18:05;;;;;;;3.37;1.50;;;14.40;97.20;;;;;;1700513;29;20203;-68
2023/04/11 08:18:57;;;;;;;4.22;2.00;;;14.30;97.20;;;;;;1700452;29;20226;-68
2023/04/11 08:19:49;;;;;;;5.00;1.60;;;14.20;97.20;;;;;;1700191;29;20223;-68
2023/04/11 08:20:40;;;;;;;4.50;1.25;;;14.10;97.20;;;;;;1700262;29;20227;-68
2023/04/11 08:21:32;;;;;;;3.23;1.30;;;14.00;97.20;;;;;;1700476;29;20220;-68
2023/04/11 08:22:24;;;;;;;4.20;1.40;;;14.00;97.20;;;;;;1700564;29;20625;-68
2023/04/11 08:23:18;;;;;;;4.72;1.58;;;14.00;97.20;;;;;;1700623;29;20267;-68
2023/04/11 08:24:09;;;;;;;3.65;1.27;;;13.90;97.20;;;;;;1700573;29;20234;-68
2023/04/11 08:25:01;;;;;;;6.97;1.63;;;13.90;97.20;;;;;;1700492;29;20303;-68
2023/04/11 08:25:52;;;;;;;3.83;1.40;;;13.90;97.20;;;;;;1700435;29;20521;-69
2023/04/11 08:26:44;;;;;;;5.77;1.20;;;13.90;97.20;;;;;;1700397;29;20203;-68
2023/04/11 08:27:35;;;;;;;3.97;1.65;;;13.80;97.20;;;;;;1700494;29;20667;-69
2023/04/11 08:28:26;;;;;;;5.97;1.67;;;13.80;97.20;;;;;;1700489;29;20641;-68
2023/04/11 08:29:17;;;;;;;5.65;1.52;;;13.70;97.20;;;;;;1700236;29;20219;-68
2023/04/11 08:30:09;;;;;;;5.10;1.40;;;13.60;97.20;;;;;;1700211;29;20211;-68
2023/04/11 08:31:02;;;;;;;5.50;1.63;;;13.50;97.20;;;;;;1700243;29;20259;-68
2023/04/11 08:31:53;;;;;;;4.43;1.30;;;13.40;97.20;;;;;;1700398;29;20207;-68
2023/04/11 08:32:45;;;;;;;3.63;1.47;;;13.30;97.20;;;;;;1700481;29;20199;-68
2023/04/11 08:33:35;;;;;;;4.57;1.90;;;13.30;97.20;;;;;;1700457;29;20273;-68
2023/04/11 08:34:27;;;;;;;3.83;1.20;;;13.20;97.20;;;;;;1700467;29;20203;-68
2023/04/11 08:35:18;;;;;;;4.80;1.45;;;13.20;97.20;;;;;;1700423;29;20234;-68
2023/04/11 08:36:10;;;;;;;4.50;1.30;;;13.10;97.20;;;;;;1700526;29;20206;-68
2023/04/11 08:37:02;;;;;;;3.75;1.27;;;13.10;97.20;;;;;;1700490;29;20254;-68
2023/04/11 08:37:55;;;;;;;3.67;1.40;;;13.10;97.20;;;;;;1700470;29;20586;-68
2023/04/11 08:38:46;;;;;;;4.78;1.40;;;13.10;97.20;;;;;;1700504;29;20203;-68
2023/04/11 08:39:37;;;;;;;2.53;1.30;;;13.00;97.20;;;;;;1700142;29;20211;-68
2023/04/11 08:40:29;;;;;;;3.05;1.23;;;13.00;97.20;;;;;;1700016;29;20207;-68
2023/04/11 08:41:21;;;;;;;6.72;1.65;;;13.10;97.20;;;;;;1701358;29;20575;-68
2023/04/11 08:42:22;;;;;;;2.17;1.20;;;13.20;97.20;;;;;;1701718;29;20406;-68
2023/04/11 08:43:14;;;;;;;5.55;1.55;;;13.40;97.20;;;;;;1701755;29;20207;-68
2023/04/11 08:44:08;;;;;;;6.05;1.70;;;13.60;97.20;;;;;;1701702;29;20686;-68
2023/04/11 08:45:02;;;;;;;5.25;1.90;;;13.80;97.20;;;;;;1701694;29;20199;-68
2023/04/11 08:45:54;;;;;;;3.30;1.30;;;14.00;97.20;;;;;;1701689;29;20199;-68
2023/04/11 08:46:45;;;;;;;4.93;1.70;;;14.20;97.20;;;;;;1701655;29;20207;-68
2023/04/11 08:47:36;;;;;;;5.07;2.20;;;14.30;97.20;;;;;;1701621;29;20199;-68
2023/04/11 08:48:28;;;;;;;6.85;1.65;;;14.50;97.20;;;;;;1701685;29;20214;-68
2023/04/11 08:49:19;;;;;;;7.38;2.13;;;14.60;97.20;;;;;;1701414;29;20266;-68
2023/04/11 08:50:10;;;;;;;4.70;1.55;;;14.70;97.20;;;;;;1694817;29;20622;-68
2023/04/11 08:51:02;;;;;;;5.25;1.75;;;14.80;97.20;;;;;;1694847;29;20220;-68
2023/04/11 08:51:55;;;;;;;4.15;1.50;;;14.80;97.20;;;;;;1695033;29;20668;-68
2023/04/11 08:52:49;;;;;;;3.28;1.45;;;14.90;97.20;;;;;;1695091;29;20204;-68
2023/04/11 08:53:41;;;;;;;2.50;1.45;;;14.90;97.20;;;;;;1694975;29;20204;-68
2023/04/11 08:54:33;;;;;;;4.32;1.67;;;15.00;97.20;;;;;;1695164;29;20243;-68
2023/04/11 08:55:24;;;;;;;4.57;1.85;;;15.10;97.20;;;;;;1694949;29;20687;-68
2023/04/11 08:56:16;;;;;;;4.00;1.57;;;15.10;97.20;;;;;;1695093;29;20569;-68
2023/04/11 08:57:07;;;;;;;6.28;1.40;;;15.10;97.20;;;;;;1694967;29;20208;-68
2023/04/11 08:58:01;;;;;;;3.87;1.30;;;15.20;97.20;;;;;;1695005;29;20259;-68
2023/04/11 08:58:53;;;;;;;2.95;1.65;;;15.20;97.20;;;;;;1695085;29;20669;-68
2023/04/11 08:59:48;;;;;;;11.40;2.42;;;15.20;97.20;;;;;;1698153;29;20195;-68
2023/04/11 09:00:40;;;;;;;2.97;1.35;;;15.30;97.20;;;;;;1701375;29;20227;-68
2023/04/11 09:01:32;;;;;;;3.22;1.45;;;15.30;97.20;;;;;;1701493;29;20591;-68
2023/04/11 09:02:24;;;;;;;4.15;1.63;;;15.40;97.20;;;;;;1701591;29;20609;-68
2023/04/11 09:03:15;;;;;;;4.55;1.40;;;15.50;97.20;;;;;;1701630;29;20218;-68
2023/04/11 09:04:08;;;;;;;3.67;1.50;;;15.50;97.20;;;;;;1701525;29;20671;-68
2023/04/11 09:04:59;;;;;;;4.45;1.35;;;15.50;97.20;;;;;;1701499;29;20239;-68
2023/04/11 09:05:51;;;;;;;3.13;1.47;;;15.50;97.20;;;;;;1701611;29;20287;-68
2023/04/11 09:06:55;;;;;;;3.17;1.27;;;15.60;97.20;;;;;;1701478;29;20207;-68
2023/04/11 09:07:48;;;;;;;1.98;1.30;;;15.60;97.20;;;;;;1701516;29;20258;-68
2023/04/11 09:08:40;;;;;;;2.38;1.50;;;15.60;97.20;;;;;;1701475;29;20710;-68
2023/04/11 09:09:33;;;;;;;4.88;1.48;;;15.70;97.20;;;;;;1701341;29;20203;-68
2023/04/11 09:10:25;;;;;;;2.45;1.20;;;15.80;97.20;;;;;;1701081;29;20668;-69
2023/04/11 09:11:17;;;;;;;5.18;1.70;;;15.80;97.20;;;;;;1701461;29;20694;-68
2023/04/11 09:12:08;;;;;;;3.38;1.27;;;15.90;97.20;;;;;;1701483;29;20207;-68
2023/04/11 09:13:01;;;;;;;3.50;1.40;;;15.90;97.20;;;;;;1701485;29;20348;-68
2023/04/11 09:14:05;;;;;;;4.60;1.35;;;16.00;97.20;;;;;;1701503;29;20471;-68
2023/04/11 09:14:57;;;;;;;5.43;1.30;;;16.20;97.20;;;;;;1701536;29;20207;-68
2023/04/11 09:16:04;;;;;;;4.65;1.50;;;16.30;97.20;;;;;;1701445;29;20207;-68
2023/04/11 09:16:58;;;;;;;4.03;1.40;;;16.40;97.20;;;;;;1701572;29;20214;-68
2023/04/11 09:17:50;;;;;;;4.38;1.52;;;16.50;97.20;;;;;;1701550;29;20210;-68
2023/04/11 09:18:42;;;;;;;3.60;1.40;;;16.60;97.20;;;;;;1701445;29;20223;-68
2023/04/11 09:19:35;;;;;;;3.40;1.17;;;16.70;97.20;;;;;;1701171;29;20249;-68
2023/04/11 09:20:28;;;;;;;2.75;1.40;;;16.70;97.20;;;;;;1701106;29;20210;-68
2023/04/11 09:21:20;;;;;;;4.07;1.58;;;16.70;97.20;;;;;;1701429;29;20293;-68
2023/04/11 09:22:12;;;;;;;5.43;1.55;;;16.60;97.20;;;;;;1701448;29;20207;-68
2023/04/11 09:23:04;;;;;;;2.92;1.55;;;16.50;97.20;;;;;;1701387;29;20295;-68
2023/04/11 09:24:13;;;;;;;3.85;1.55;;;16.40;97.20;;;;;;1701474;29;20576;-68
2023/04/11 09:25:05;;;;;;;2.70;1.40;;;16.30;97.20;;;;;;1701514;29;20579;-68
2023/04/11 09:25:57;;;;;;;2.10;1.40;;;16.30;97.20;;;;;;1701445;29;20214;-68
2023/04/11 09:26:48;;;;;;;2.33;1.27;;;16.40;97.20;;;;;;1701453;29;20687;-68
2023/04/11 09:27:40;;;;;;;2.77;1.70;;;16.60;97.20;;;;;;1701380;29;20655;-69
2023/04/11 09:28:41;;;;;;;2.80;1.42;;;16.70;97.20;;;;;;1701501;29;20207;-68
2023/04/11 09:29:41;;;;;;;3.67;1.20;;;16.80;97.20;;;;;;1701384;29;20250;-68
2023/04/11 09:30:32;;;;;;;1.63;1.13;;;17.00;97.20;;;;;;1694511;29;20219;-68
2023/04/11 09:31:40;;;;;;;5.25;1.40;;;17.10;97.20;;;;;;1694755;29;20225;-68